createdAt,value
2018-08-19T00:00:29.849Z,98592.50
2018-08-19T00:03:02.192Z,98596.86
2018-08-19T00:05:31.353Z,98594.67
2018-08-19T00:07:59.815Z,98600.36
2018-08-19T00:10:44.487Z,98600.52
2018-08-19T00:13:13.651Z,98594.16
2018-08-19T00:15:42.374Z,98594.67
2018-08-19T00:18:12.180Z,98596.69
2018-08-19T00:20:40.871Z,98599.16
2018-08-19T00:23:10.195Z,98598.15
2018-08-19T00:25:41.371Z,98597.14
2018-08-19T00:28:11.501Z,98598.63
2018-08-19T00:30:39.941Z,98596.33
2018-08-19T00:33:08.994Z,98598.50
2018-08-19T00:35:37.494Z,98606.18
2018-08-19T00:38:08.663Z,98605.70
2018-08-19T00:40:37.532Z,98607.38
2018-08-19T00:43:05.989Z,98605.66
2018-08-19T00:45:34.432Z,98608.66
2018-08-19T00:48:02.898Z,98609.66
2018-08-19T00:50:31.452Z,98608.31
2018-08-19T00:52:59.960Z,98617.38
2018-08-19T00:55:36.504Z,98620.38
2018-08-19T00:58:16.440Z,98618.84
2018-08-19T01:00:44.967Z,98617.19
2018-08-19T01:03:13.858Z,98615.02
2018-08-19T01:05:42.575Z,98614.55
2018-08-19T01:08:12.683Z,98616.98
2018-08-19T01:10:41.431Z,98618.42
2018-08-19T01:13:11.031Z,98623.40
2018-08-19T01:15:39.472Z,98620.75
2018-08-19T01:18:07.917Z,98626.61
2018-08-19T01:20:36.509Z,98623.20
2018-08-19T01:23:05.107Z,98618.67
2018-08-19T01:25:33.594Z,98623.33
2018-08-19T01:28:02.079Z,98622.52
2018-08-19T01:30:30.622Z,98621.87
2018-08-19T01:32:59.059Z,98618.92
2018-08-19T01:35:32.570Z,98621.74
2018-08-19T01:38:01.390Z,98631.11
2018-08-19T01:40:29.972Z,98627.31
2018-08-19T01:42:58.403Z,98627.84
2018-08-19T01:45:26.839Z,98624.67
2018-08-19T01:47:55.280Z,98624.84
2018-08-19T01:50:23.698Z,98621.16
2018-08-19T01:52:52.173Z,98622.63
2018-08-19T01:55:20.707Z,98631.42
2018-08-19T01:57:50.397Z,98628.66
2018-08-19T02:00:19.655Z,98628.13
2018-08-19T02:03:01.978Z,98621.77
2018-08-19T02:05:30.483Z,98621.91
2018-08-19T02:08:00.769Z,98621.41
2018-08-19T02:10:30.618Z,98628.90
2018-08-19T02:12:59.596Z,98624.39
2018-08-19T02:15:29.551Z,98627.34
2018-08-19T02:18:05.891Z,98629.34
2018-08-19T02:20:36.617Z,98637.37
2018-08-19T02:23:08.367Z,98631.66
2018-08-19T02:25:40.885Z,98625.47
2018-08-19T02:28:10.252Z,98624.20
2018-08-19T02:31:00.833Z,98626.86
2018-08-19T02:33:34.595Z,98631.98
2018-08-19T02:36:06.752Z,98628.33
2018-08-19T02:38:37.205Z,98632.27
2018-08-19T02:41:06.606Z,98632.38
2018-08-19T02:43:36.782Z,98640.91
2018-08-19T02:46:05.511Z,98629.52
2018-08-19T02:48:51.304Z,98642.74
2018-08-19T02:51:20.912Z,98645.66
2018-08-19T02:53:51.166Z,98652.19
2018-08-19T02:56:20.219Z,98651.28
2018-08-19T02:58:49.298Z,98655.83
2018-08-19T03:01:18.828Z,98658.19
2018-08-19T03:03:47.313Z,98656.80
2018-08-19T03:06:15.809Z,98650.91
2018-08-19T03:08:49.399Z,98653.09
2018-08-19T03:11:20.852Z,98646.55
2018-08-19T03:13:50.153Z,98635.70
2018-08-19T03:16:18.927Z,98643.58
2018-08-19T03:18:49.412Z,98643.69
2018-08-19T03:21:21.861Z,98650.63
2018-08-19T03:23:51.951Z,98651.47
2018-08-19T03:26:20.450Z,98655.89
2018-08-19T03:28:49.377Z,98657.82
2018-08-19T03:31:17.869Z,98658.94
2018-08-19T03:33:46.309Z,98663.53
2018-08-19T03:36:14.740Z,98659.11
2018-08-19T03:38:43.214Z,98658.52
2018-08-19T03:41:11.621Z,98663.05
2018-08-19T03:43:43.073Z,98665.91
2018-08-19T03:46:20.039Z,98668.88
2018-08-19T03:48:49.562Z,98673.91
2018-08-19T03:51:18.007Z,98668.74
2018-08-19T03:53:46.752Z,98669.70
2018-08-19T03:56:20.400Z,98666.00
2018-08-19T03:58:50.183Z,98670.60
2018-08-19T04:01:28.512Z,98675.26
2018-08-19T04:03:57.085Z,98673.83
2018-08-19T04:06:25.570Z,98670.32
2018-08-19T04:08:54.576Z,98674.82
2018-08-19T04:11:23.030Z,98676.56
2018-08-19T04:13:51.479Z,98672.92
2018-08-19T04:16:20.015Z,98677.27
2018-08-19T04:18:48.459Z,98684.91
2018-08-19T04:22:19.708Z,98689.02
2018-08-19T04:24:48.428Z,98687.14
2018-08-19T04:27:16.899Z,98690.06
2018-08-19T04:29:45.362Z,98691.34
2018-08-19T04:32:19.431Z,98695.39
2018-08-19T04:34:47.962Z,98694.30
2018-08-19T04:38:18.987Z,98697.53
2018-08-19T04:40:47.494Z,98699.77
2018-08-19T04:43:15.941Z,98698.53
2018-08-19T04:45:44.475Z,98701.91
2018-08-19T04:48:13.168Z,98703.16
2018-08-19T04:50:41.678Z,98706.90
2018-08-19T04:53:10.106Z,98706.43
2018-08-19T04:55:38.567Z,98707.98
2018-08-19T04:58:07.109Z,98713.91
2018-08-19T05:00:35.652Z,98708.30
2018-08-19T05:03:04.195Z,98712.71
2018-08-19T05:05:32.721Z,98708.84
2018-08-19T05:08:01.283Z,98707.41
2018-08-19T05:10:29.647Z,98713.52
2018-08-19T05:12:58.093Z,98719.72
2018-08-19T05:15:29.111Z,98714.34
2018-08-19T05:17:57.820Z,98719.02
2018-08-19T05:20:27.715Z,98715.61
2018-08-19T05:22:56.199Z,98721.58
2018-08-19T05:25:24.612Z,98723.10
2018-08-19T05:27:57.200Z,98721.37
2018-08-19T05:30:26.479Z,98717.44
2018-08-19T05:33:01.009Z,98721.31
2018-08-19T05:35:31.115Z,98719.31
2018-08-19T05:38:01.248Z,98725.57
2018-08-19T05:40:30.379Z,98722.52
2018-08-19T05:43:00.237Z,98724.97
2018-08-19T05:45:29.959Z,98726.63
2018-08-19T05:48:07.948Z,98726.69
2018-08-19T05:50:36.427Z,98720.66
2018-08-19T05:53:05.059Z,98719.53
2018-08-19T05:55:34.285Z,98717.20
2018-08-19T05:58:02.790Z,98721.42
2018-08-19T06:00:32.012Z,98719.02
2018-08-19T06:03:01.847Z,98725.57
2018-08-19T06:05:30.527Z,98732.27
2018-08-19T06:08:08.108Z,98732.44
2018-08-19T06:10:36.649Z,98731.27
2018-08-19T06:13:05.612Z,98733.52
2018-08-19T06:15:34.317Z,98727.64
2018-08-19T06:18:02.891Z,98731.95
2018-08-19T06:20:32.324Z,98726.41
2018-08-19T06:23:00.889Z,98739.62
2018-08-19T06:26:34.699Z,98735.29
2018-08-19T06:29:03.165Z,98741.33
2018-08-19T06:31:31.889Z,98736.95
2018-08-19T06:34:00.338Z,98749.53
2018-08-19T06:36:28.942Z,98742.30
2018-08-19T06:38:57.803Z,98733.43
2018-08-19T06:41:26.311Z,98738.39
2018-08-19T06:43:54.985Z,98742.06
2018-08-19T06:46:23.697Z,98730.38
2018-08-19T06:48:52.177Z,98725.44
2018-08-19T06:51:20.648Z,98727.59
2018-08-19T06:53:49.052Z,98734.02
2018-08-19T06:56:17.522Z,98737.77
2018-08-19T06:58:45.999Z,98740.35
2018-08-19T07:01:14.564Z,98737.86
2018-08-19T07:03:47.570Z,98729.88
2018-08-19T07:06:16.408Z,98732.42
2018-08-19T07:08:44.895Z,98734.98
2018-08-19T07:11:13.685Z,98732.34
2018-08-19T07:13:42.627Z,98739.34
2018-08-19T07:16:11.140Z,98736.00
2018-08-19T07:18:39.615Z,98737.13
2018-08-19T07:21:08.095Z,98739.01
2018-08-19T07:23:37.059Z,98744.13
2018-08-19T07:26:05.500Z,98737.70
2018-08-19T07:28:33.997Z,98739.94
2018-08-19T07:31:02.487Z,98745.38
2018-08-19T07:33:31.556Z,98741.81
2018-08-19T07:35:59.968Z,98732.88
2018-08-19T07:38:28.612Z,98737.41
2018-08-19T07:40:57.116Z,98746.95
2018-08-19T07:43:25.657Z,98736.67
2018-08-19T07:45:54.828Z,98739.61
2018-08-19T07:48:23.385Z,98729.83
2018-08-19T07:50:51.827Z,98733.84
2018-08-19T07:53:20.244Z,98724.55
2018-08-19T07:55:48.837Z,98733.15
2018-08-19T07:58:55.270Z,98732.27
2018-08-19T08:01:23.960Z,98727.66
2018-08-19T08:03:52.432Z,98726.16
2018-08-19T08:06:21.240Z,98726.97
2018-08-19T08:08:51.822Z,98720.37
2018-08-19T08:11:20.268Z,98721.59
2018-08-19T08:13:49.658Z,98727.27
2018-08-19T08:16:19.513Z,98723.78
2018-08-19T08:18:48.004Z,98720.47
2018-08-19T08:21:18.081Z,98722.34
2018-08-19T08:23:46.465Z,98720.67
2018-08-19T08:26:15.140Z,98721.89
2018-08-19T08:28:53.100Z,98720.66
2018-08-19T08:31:21.803Z,98725.94
2018-08-19T08:33:52.246Z,98718.22
2018-08-19T08:36:20.918Z,98716.50
2018-08-19T08:38:50.774Z,98716.11
2018-08-19T08:41:19.263Z,98720.87
2018-08-19T08:43:48.135Z,98715.00
2018-08-19T08:46:16.849Z,98717.70
2018-08-19T08:48:46.075Z,98714.55
2018-08-19T08:51:14.964Z,98711.28
2018-08-19T08:53:45.448Z,98709.05
2018-08-19T08:56:14.619Z,98709.45
2018-08-19T08:58:43.185Z,98701.81
2018-08-19T09:01:11.922Z,98702.14
2018-08-19T09:03:40.595Z,98693.41
2018-08-19T09:06:16.004Z,98696.81
2018-08-19T09:08:44.888Z,98693.84
2018-08-19T09:11:13.672Z,98688.97
2018-08-19T09:13:42.408Z,98685.33
2018-08-19T09:16:11.152Z,98685.13
2018-08-19T09:18:39.619Z,98683.78
2018-08-19T09:21:08.487Z,98676.05
2018-08-19T09:23:36.933Z,98672.09
2018-08-19T09:26:05.407Z,98676.67
2018-08-19T09:28:35.079Z,98670.34
2018-08-19T09:31:03.867Z,98666.22
2018-08-19T09:33:32.578Z,98663.68
2018-08-19T09:36:01.255Z,98656.52
2018-08-19T09:38:29.786Z,98654.88
2018-08-19T09:40:58.397Z,98653.69
2018-08-19T09:43:26.920Z,98651.08
2018-08-19T09:45:55.335Z,98652.34
2018-08-19T09:48:23.953Z,98644.78
2018-08-19T09:50:52.486Z,98640.80
2018-08-19T09:53:21.260Z,98645.97
2018-08-19T09:55:55.673Z,98643.31
2018-08-19T09:58:26.459Z,98638.72
2018-08-19T10:01:00.108Z,98631.26
2018-08-19T10:03:29.361Z,98638.17
2018-08-19T10:05:58.208Z,98633.62
2018-08-19T10:08:26.644Z,98635.61
2018-08-19T10:10:55.096Z,98633.06
2018-08-19T10:13:23.819Z,98636.44
2018-08-19T10:15:52.224Z,98630.72
2018-08-19T10:18:20.897Z,98628.09
2018-08-19T10:20:49.404Z,98628.29
2018-08-19T10:23:17.871Z,98628.62
2018-08-19T10:25:46.858Z,98620.48
2018-08-19T10:28:15.336Z,98617.75
2018-08-19T10:30:48.988Z,98624.44
2018-08-19T10:33:20.423Z,98615.97
2018-08-19T10:35:49.136Z,98617.20
2018-08-19T10:38:17.611Z,98607.45
2018-08-19T10:40:57.992Z,98598.06
2018-08-19T10:43:28.780Z,98605.11
2018-08-19T10:45:57.324Z,98606.90
2018-08-19T10:48:25.776Z,98598.11
2018-08-19T10:50:54.285Z,98600.38
2018-08-19T10:53:26.756Z,98592.92
2018-08-19T10:55:58.134Z,98589.23
2018-08-19T10:58:26.669Z,98590.86
2018-08-19T11:00:55.304Z,98592.16
2018-08-19T11:03:23.782Z,98588.34
2018-08-19T11:05:53.876Z,98586.43
2018-08-19T11:08:22.352Z,98587.18
2018-08-19T11:10:51.015Z,98577.84
2018-08-19T11:13:22.110Z,98580.03
2018-08-19T11:15:56.610Z,98565.47
2018-08-19T11:18:30.998Z,98564.62
2018-08-19T11:21:04.261Z,98566.72
2018-08-19T11:23:34.140Z,98563.69
2018-08-19T11:26:02.575Z,98557.64
2018-08-19T11:28:37.343Z,98556.70
2018-08-19T11:31:07.138Z,98550.66
2018-08-19T11:33:42.011Z,98548.97
2018-08-19T11:36:11.272Z,98550.02
2018-08-19T11:38:40.711Z,98547.44
2018-08-19T11:41:10.204Z,98543.98
2018-08-19T11:43:40.943Z,98541.88
2018-08-19T11:46:09.788Z,98542.08
2018-08-19T11:48:38.942Z,98536.34
2018-08-19T11:51:07.820Z,98527.56
2018-08-19T11:53:36.543Z,98474.00
2018-08-19T11:56:05.518Z,98531.52
2018-08-19T11:58:46.446Z,98524.44
2018-08-19T12:01:21.459Z,98523.91
2018-08-19T12:04:00.655Z,98520.20
2018-08-19T12:06:30.432Z,98514.91
2018-08-19T12:09:00.541Z,98518.50
2018-08-19T12:11:30.908Z,98514.34
2018-08-19T12:14:02.580Z,98509.25
2018-08-19T12:16:31.217Z,98509.23
2018-08-19T12:19:05.623Z,98508.42
2018-08-19T12:21:38.227Z,98495.32
2018-08-19T12:24:21.591Z,98493.55
2018-08-19T12:26:50.339Z,98495.55
2018-08-19T12:29:18.762Z,98488.78
2018-08-19T12:31:47.319Z,98488.31
2018-08-19T12:34:15.719Z,98479.28
2018-08-19T12:36:44.159Z,98472.56
2018-08-19T12:39:13.015Z,98477.91
2018-08-19T12:41:46.066Z,98479.30
2018-08-19T12:44:14.586Z,98478.43
2018-08-19T12:46:54.399Z,98469.16
2018-08-19T12:49:22.939Z,98463.14
2018-08-19T12:51:51.363Z,98463.13
2018-08-19T12:54:19.825Z,98455.14
2018-08-19T12:56:48.498Z,98454.47
2018-08-19T12:59:17.004Z,98445.14
2018-08-19T13:01:45.472Z,98449.89
2018-08-19T13:04:13.883Z,98440.77
2018-08-19T13:06:56.462Z,98443.11
2018-08-19T13:09:29.531Z,98440.91
2018-08-19T13:12:04.203Z,98438.48
2018-08-19T13:14:32.927Z,98440.28
2018-08-19T13:17:01.380Z,98439.09
2018-08-19T13:19:30.786Z,98441.33
2018-08-19T13:22:00.678Z,98439.84
2018-08-19T13:24:34.167Z,98430.91
2018-08-19T13:27:03.284Z,98432.75
2018-08-19T13:29:32.176Z,98429.03
2018-08-19T13:32:00.663Z,98426.75
2018-08-19T13:34:29.661Z,98423.81
2018-08-19T13:36:58.753Z,98420.37
2018-08-19T13:39:28.168Z,98412.28
2018-08-19T13:41:56.935Z,98403.26
2018-08-19T13:44:25.442Z,98405.98
2018-08-19T13:46:53.877Z,98400.44
2018-08-19T13:49:27.028Z,98399.41
2018-08-19T13:51:55.601Z,98398.37
2018-08-19T13:54:24.332Z,98394.56
2018-08-19T13:56:52.751Z,98397.16
2018-08-19T13:59:21.230Z,98398.56
2018-08-19T14:01:49.661Z,98393.16
2018-08-19T14:04:18.096Z,98392.03
2018-08-19T14:06:46.556Z,98387.78
2018-08-19T14:09:15.600Z,98379.31
2018-08-19T14:11:44.022Z,98385.70
2018-08-19T14:14:12.687Z,98388.23
2018-08-19T14:16:41.098Z,98384.33
2018-08-19T14:19:09.818Z,98385.46
2018-08-19T14:21:38.263Z,98376.79
2018-08-19T14:24:06.682Z,98368.09
2018-08-19T14:26:35.284Z,98366.72
2018-08-19T14:29:03.724Z,98364.25
2018-08-19T14:31:32.243Z,98363.09
2018-08-19T14:34:00.724Z,98356.03
2018-08-19T14:36:29.172Z,98358.97
2018-08-19T14:38:57.824Z,98353.70
2018-08-19T14:41:26.345Z,98352.39
2018-08-19T14:44:02.346Z,98353.52
2018-08-19T14:46:31.812Z,98352.17
2018-08-19T14:49:01.717Z,98353.22
2018-08-19T14:51:33.830Z,98345.63
2018-08-19T14:54:14.959Z,98348.81
2018-08-19T14:56:43.672Z,98344.08
2018-08-19T14:59:13.358Z,98342.94
2018-08-19T15:01:41.775Z,98346.97
2018-08-19T15:04:14.971Z,98339.46
2018-08-19T15:06:44.646Z,98338.23
2018-08-19T15:09:15.213Z,98334.89
2018-08-19T15:11:43.830Z,98332.90
2018-08-19T15:14:17.504Z,98331.73
2018-08-19T15:16:49.153Z,98334.67
2018-08-19T15:19:17.607Z,98328.44
2018-08-19T15:21:56.028Z,98333.77
2018-08-19T15:24:25.096Z,98328.95
2018-08-19T15:26:53.883Z,98331.78
2018-08-19T15:29:27.524Z,98329.91
2018-08-19T15:31:56.016Z,98324.41
2018-08-19T15:34:24.453Z,98323.87
2018-08-19T15:36:52.875Z,98325.62
2018-08-19T15:39:21.328Z,98321.47
2018-08-19T15:41:49.872Z,98319.91
2018-08-19T15:44:18.372Z,98313.61
2018-08-19T15:46:47.648Z,98313.53
2018-08-19T15:49:17.023Z,98310.36
2018-08-19T15:51:45.467Z,98314.72
2018-08-19T15:54:13.887Z,98309.77
2018-08-19T15:56:42.308Z,98307.44
2018-08-19T15:59:11.048Z,98297.98
2018-08-19T16:01:39.972Z,98303.83
2018-08-19T16:04:26.300Z,98300.81
2018-08-19T16:06:55.563Z,98297.14
2018-08-19T16:09:25.484Z,98292.68
2018-08-19T16:11:54.499Z,98291.86
2018-08-19T16:14:23.848Z,98283.63
2018-08-19T16:16:53.299Z,98280.94
2018-08-19T16:19:21.852Z,98283.92
2018-08-19T16:21:51.680Z,98279.84
2018-08-19T16:24:20.230Z,98276.29
2018-08-19T16:26:48.701Z,98276.69
2018-08-19T16:29:17.162Z,98272.08
2018-08-19T16:31:46.165Z,98274.20
2018-08-19T16:34:15.102Z,98276.05
2018-08-19T16:36:43.492Z,98274.78
2018-08-19T16:39:13.764Z,98268.48
2018-08-19T16:41:42.578Z,98273.47
2018-08-19T16:44:11.739Z,98270.15
2018-08-19T16:46:40.658Z,98279.67
2018-08-19T16:49:09.204Z,98273.91
2018-08-19T16:51:37.692Z,98276.63
2018-08-19T16:54:06.703Z,98274.33
2018-08-19T16:56:35.275Z,98275.23
2018-08-19T16:59:03.764Z,98272.23
2018-08-19T17:01:32.152Z,98265.52
2018-08-19T17:04:00.651Z,98271.63
2018-08-19T17:06:29.040Z,98270.61
2018-08-19T17:08:57.509Z,98269.75
2018-08-19T17:11:25.955Z,98272.44
2018-08-19T17:13:54.452Z,98273.13
2018-08-19T17:16:22.928Z,98272.91
2018-08-19T17:18:51.619Z,98267.52
2018-08-19T17:21:20.131Z,98266.54
2018-08-19T17:23:50.741Z,98262.95
2018-08-19T17:26:21.677Z,98262.42
2018-08-19T17:28:50.351Z,98259.20
2018-08-19T17:31:18.984Z,98257.56
2018-08-19T17:33:47.432Z,98260.30
2018-08-19T17:36:22.119Z,98252.00
2018-08-19T17:38:50.687Z,98262.16
2018-08-19T17:41:19.123Z,98260.75
2018-08-19T17:43:47.736Z,98267.25
2018-08-19T17:46:17.243Z,98267.78
2018-08-19T17:48:46.191Z,98265.20
2018-08-19T17:51:26.618Z,98261.50
2018-08-19T17:53:55.608Z,98263.71
2018-08-19T17:56:24.164Z,98254.42
2018-08-19T17:58:52.754Z,98262.64
2018-08-19T18:01:21.746Z,98256.11
2018-08-19T18:03:50.254Z,98263.76
2018-08-19T18:06:18.670Z,98264.17
2018-08-19T18:08:49.600Z,98265.29
2018-08-19T18:11:18.452Z,98270.63
2018-08-19T18:13:46.956Z,98268.56
2018-08-19T18:16:16.281Z,98275.00
2018-08-19T18:18:45.572Z,98271.75
2018-08-19T18:21:14.022Z,98278.64
2018-08-19T18:23:46.025Z,98272.75
2018-08-19T18:26:15.003Z,98279.37
2018-08-19T18:28:45.398Z,98279.41
2018-08-19T18:31:13.874Z,98284.67
2018-08-19T18:33:51.538Z,98287.22
2018-08-19T18:36:23.276Z,98296.38
2018-08-19T18:38:51.992Z,98296.33
2018-08-19T18:41:26.892Z,98297.74
2018-08-19T18:43:59.087Z,98294.42
2018-08-19T18:46:28.216Z,98299.20
2018-08-19T18:49:13.609Z,98298.90
2018-08-19T18:51:45.024Z,98298.74
2018-08-19T18:54:30.651Z,98300.53
2018-08-19T18:57:01.379Z,98303.13
2018-08-19T18:59:30.252Z,98305.39
2018-08-19T19:02:00.636Z,98304.83
2018-08-19T19:04:29.527Z,98310.98
2018-08-19T19:06:58.023Z,98314.89
2018-08-19T19:09:36.012Z,98312.51
2018-08-19T19:12:04.934Z,98318.61
2018-08-19T19:14:33.409Z,98313.77
2018-08-19T19:17:01.858Z,98309.75
2018-08-19T19:19:32.319Z,98313.13
2018-08-19T19:22:01.368Z,98307.76
2018-08-19T19:24:35.433Z,98303.78
2018-08-19T19:27:03.904Z,98305.06
2018-08-19T19:29:32.328Z,98308.29
2018-08-19T19:32:05.743Z,98309.93
2018-08-19T19:34:34.196Z,98308.34
2018-08-19T19:37:03.058Z,98312.69
2018-08-19T19:39:31.530Z,98315.38
2018-08-19T19:42:05.433Z,98310.86
2018-08-19T19:44:34.975Z,98308.58
2018-08-19T19:47:03.790Z,98308.67
2018-08-19T19:49:32.611Z,98306.63
2018-08-19T19:52:02.636Z,98312.12
2018-08-19T19:54:32.221Z,98312.43
2018-08-19T19:57:01.178Z,98317.10
2018-08-19T19:59:33.208Z,98315.98
2018-08-19T20:02:01.804Z,98314.53
2018-08-19T20:04:30.351Z,98312.83
2018-08-19T20:06:58.942Z,98319.59
2018-08-19T20:09:27.363Z,98315.87
2018-08-19T20:11:55.816Z,98314.20
2018-08-19T20:14:24.236Z,98320.02
2018-08-19T20:16:52.717Z,98322.39
2018-08-19T20:19:21.319Z,98322.50
2018-08-19T20:21:49.774Z,98319.72
2018-08-19T20:24:18.459Z,98323.11
2018-08-19T20:26:46.914Z,98321.78
2018-08-19T20:29:15.364Z,98314.23
2018-08-19T20:31:43.832Z,98316.50
2018-08-19T20:34:12.307Z,98321.05
2018-08-19T20:36:40.786Z,98326.17
2018-08-19T20:39:09.273Z,98328.42
2018-08-19T20:41:37.973Z,98334.99
2018-08-19T20:44:08.084Z,98325.84
2018-08-19T20:46:40.446Z,98331.64
2018-08-19T20:49:08.880Z,98336.25
2018-08-19T20:51:37.335Z,98338.30
2018-08-19T20:54:06.064Z,98336.56
2018-08-19T20:56:34.527Z,98340.67
2018-08-19T20:59:03.028Z,98339.03
2018-08-19T21:01:31.482Z,98342.45
2018-08-19T21:03:59.912Z,98344.75
2018-08-19T21:06:28.351Z,98349.02
2018-08-19T21:08:56.780Z,98350.49
2018-08-19T21:11:25.331Z,98356.22
2018-08-19T21:13:53.796Z,98351.80
2018-08-19T21:16:22.228Z,98355.11
2018-08-19T21:18:50.647Z,98358.02
2018-08-19T21:21:19.095Z,98354.89
2018-08-19T21:23:47.619Z,98355.77
2018-08-19T21:26:16.040Z,98357.73
2018-08-19T21:28:48.907Z,98359.96
2018-08-19T21:31:17.682Z,98366.81
2018-08-19T21:33:46.138Z,98369.05
2018-08-19T21:36:14.562Z,98363.70
2018-08-19T21:38:43.127Z,98367.73
2018-08-19T21:41:11.607Z,98364.23
2018-08-19T21:43:40.083Z,98368.14
2018-08-19T21:46:09.504Z,98367.89
2018-08-19T21:48:39.449Z,98367.44
2018-08-19T21:51:07.922Z,98366.22
2018-08-19T21:53:36.856Z,98371.67
2018-08-19T21:56:05.729Z,98371.67
2018-08-19T21:58:34.236Z,98372.64
2018-08-19T22:01:03.995Z,98368.94
2018-08-19T22:03:37.662Z,98370.53
2018-08-19T22:06:09.192Z,98372.77
2018-08-19T22:08:37.645Z,98375.07
2018-08-19T22:11:06.148Z,98373.61
2018-08-19T22:13:34.579Z,98374.61
2018-08-19T22:16:03.041Z,98375.58
2018-08-19T22:18:31.786Z,98376.16
2018-08-19T22:21:16.445Z,98372.00
2018-08-19T22:23:46.410Z,98375.67
2018-08-19T22:26:15.948Z,98380.03
2018-08-19T22:28:44.718Z,98378.08
2018-08-19T22:31:27.311Z,98379.47
2018-08-19T22:33:57.132Z,98383.58
2018-08-19T22:36:25.551Z,98379.47
2018-08-19T22:38:54.887Z,98380.07
2018-08-19T22:41:26.527Z,98376.33
2018-08-19T22:43:56.433Z,98367.53
2018-08-19T22:46:25.625Z,98375.05
2018-08-19T22:48:54.969Z,98372.57
2018-08-19T22:51:23.412Z,98370.53
2018-08-19T22:53:53.488Z,98368.90
2018-08-19T22:56:22.616Z,98366.78
2018-08-19T22:58:51.092Z,98365.09
2018-08-19T23:01:19.687Z,98371.59
2018-08-19T23:03:48.534Z,98370.25
2018-08-19T23:06:16.992Z,98371.99
2018-08-19T23:08:45.398Z,98372.87
2018-08-19T23:11:14.844Z,98368.53
2018-08-19T23:16:51.587Z,98366.72
2018-08-19T23:19:20.491Z,98366.50
2018-08-19T23:21:50.043Z,98366.95
2018-08-19T23:24:18.595Z,98366.24
2018-08-19T23:26:47.237Z,98359.80
2018-08-19T23:29:16.316Z,98365.09
2018-08-19T23:31:45.726Z,98357.95
2018-08-19T23:34:14.197Z,98367.36
2018-08-19T23:36:43.013Z,98262.97
2018-08-19T23:39:11.650Z,98357.84
2018-08-19T23:41:40.302Z,98358.48
2018-08-19T23:44:09.266Z,98359.53
2018-08-19T23:46:38.016Z,98359.30
2018-08-19T23:49:06.500Z,98354.48
2018-08-19T23:51:34.936Z,98351.47
2018-08-19T23:54:04.350Z,98352.63
2018-08-19T23:56:33.304Z,98358.13
2018-08-19T23:59:02.215Z,98353.86
